createdAt,value
2018-12-17T00:00:31.225Z,3.73
2018-12-17T00:02:58.630Z,3.54
2018-12-17T00:05:26.034Z,3.56
2018-12-17T00:07:53.471Z,3.67
2018-12-17T00:10:20.874Z,3.70
2018-12-17T00:12:48.282Z,3.75
2018-12-17T00:15:15.767Z,3.69
2018-12-17T00:17:43.188Z,3.66
2018-12-17T00:20:10.798Z,3.68
2018-12-17T00:22:38.218Z,3.70
2018-12-17T00:25:05.935Z,3.66
2018-12-17T00:27:33.331Z,3.73
2018-12-17T00:30:00.730Z,3.62
2018-12-17T00:32:28.137Z,3.49
2018-12-17T00:34:55.526Z,3.46
2018-12-17T00:37:22.946Z,3.25
2018-12-17T00:39:50.338Z,3.37
2018-12-17T00:42:17.735Z,3.32
2018-12-17T00:44:45.129Z,3.30
2018-12-17T00:47:12.575Z,3.18
2018-12-17T00:49:40.026Z,3.20
2018-12-17T00:52:07.430Z,3.04
2018-12-17T00:54:34.823Z,3.01
2018-12-17T00:57:02.282Z,2.95
2018-12-17T00:59:29.759Z,2.98
2018-12-17T01:01:57.566Z,2.98
2018-12-17T01:04:24.972Z,3.06
2018-12-17T01:06:52.441Z,3.08
2018-12-17T01:09:19.834Z,3.01
2018-12-17T01:11:47.236Z,2.91
2018-12-17T01:14:14.702Z,2.93
2018-12-17T01:16:42.106Z,2.99
2018-12-17T01:19:09.498Z,2.98
2018-12-17T01:21:37.095Z,2.86
2018-12-17T01:24:04.494Z,2.86
2018-12-17T01:26:31.889Z,2.76
2018-12-17T01:28:59.293Z,2.73
2018-12-17T01:31:26.793Z,2.56
2018-12-17T01:33:54.262Z,2.51
2018-12-17T01:36:21.656Z,2.35
2018-12-17T01:38:49.053Z,2.44
2018-12-17T01:41:16.524Z,2.65
2018-12-17T01:43:43.984Z,2.51
2018-12-17T01:46:11.436Z,2.48
2018-12-17T01:48:38.895Z,2.45
2018-12-17T01:51:06.346Z,2.52
2018-12-17T01:53:33.803Z,2.51
2018-12-17T01:56:01.397Z,2.45
2018-12-17T01:58:29.355Z,2.41
2018-12-17T02:00:57.082Z,2.41
2018-12-17T02:03:24.655Z,2.37
2018-12-17T02:05:52.054Z,2.54
2018-12-17T02:08:19.462Z,2.74
2018-12-17T02:10:46.918Z,2.74
2018-12-17T02:13:14.380Z,2.78
2018-12-17T02:15:41.837Z,2.75
2018-12-17T02:18:09.290Z,2.67
2018-12-17T02:20:36.751Z,2.74
2018-12-17T02:23:04.169Z,2.41
2018-12-17T02:25:31.637Z,2.46
2018-12-17T02:27:59.320Z,2.55
2018-12-17T02:30:26.695Z,2.66
2018-12-17T02:32:54.176Z,2.83
2018-12-17T02:35:21.586Z,2.88
2018-12-17T02:37:48.982Z,2.87
2018-12-17T02:40:16.365Z,2.88
2018-12-17T02:42:43.763Z,2.85
2018-12-17T02:45:11.314Z,3.02
2018-12-17T02:47:38.710Z,3.05
2018-12-17T02:50:06.126Z,3.28
2018-12-17T02:52:33.582Z,3.43
2018-12-17T02:55:01.263Z,3.46
2018-12-17T02:57:28.806Z,3.49
2018-12-17T02:59:56.266Z,3.52
2018-12-17T03:02:23.653Z,3.53
2018-12-17T03:04:51.077Z,3.56
2018-12-17T03:07:18.531Z,3.46
2018-12-17T03:09:46.091Z,3.33
2018-12-17T03:12:13.550Z,3.40
2018-12-17T03:14:41.102Z,3.41
2018-12-17T03:17:08.558Z,3.47
2018-12-17T03:19:36.246Z,3.63
2018-12-17T03:22:03.779Z,3.75
2018-12-17T03:24:31.239Z,3.86
2018-12-17T03:26:58.642Z,3.77
2018-12-17T03:29:26.052Z,3.78
2018-12-17T03:31:53.451Z,3.84
2018-12-17T03:34:20.957Z,3.77
2018-12-17T03:36:48.415Z,3.73
2018-12-17T03:39:15.881Z,3.80
2018-12-17T03:41:43.334Z,3.68
2018-12-17T03:44:10.738Z,3.68
2018-12-17T03:46:38.123Z,3.64
2018-12-17T03:49:05.628Z,3.65
2018-12-17T03:51:33.163Z,3.65
2018-12-17T03:54:00.620Z,3.52
2018-12-17T03:56:28.013Z,3.67
2018-12-17T03:58:59.278Z,3.42
2018-12-17T04:01:24.839Z,3.41
2018-12-17T04:03:52.231Z,3.24
2018-12-17T04:06:19.656Z,3.19
2018-12-17T04:08:47.210Z,2.95
2018-12-17T04:11:14.658Z,2.97
2018-12-17T04:13:42.219Z,3.08
2018-12-17T04:16:09.675Z,3.04
2018-12-17T04:18:37.274Z,3.10
2018-12-17T04:21:04.690Z,2.90
2018-12-17T04:23:32.076Z,2.89
2018-12-17T04:25:59.461Z,2.97
2018-12-17T04:28:26.964Z,2.90
2018-12-17T04:30:54.523Z,2.85
2018-12-17T04:33:21.983Z,2.93
2018-12-17T04:35:49.386Z,2.89
2018-12-17T04:38:16.787Z,2.96
2018-12-17T04:40:44.179Z,3.04
2018-12-17T04:43:11.607Z,3.14
2018-12-17T04:45:39.153Z,3.15
2018-12-17T04:48:06.619Z,3.15
2018-12-17T04:50:34.012Z,3.02
2018-12-17T04:53:01.403Z,3.09
2018-12-17T04:55:28.798Z,3.14
2018-12-17T04:57:56.200Z,3.20
2018-12-17T05:00:23.695Z,3.15
2018-12-17T05:02:51.161Z,3.22
2018-12-17T05:05:18.606Z,3.27
2018-12-17T05:07:46.081Z,3.17
2018-12-17T05:10:13.514Z,3.13
2018-12-17T05:12:40.987Z,3.06
2018-12-17T05:15:08.453Z,3.10
2018-12-17T05:17:35.890Z,2.95
2018-12-17T05:20:03.487Z,3.05
2018-12-17T05:22:30.904Z,2.97
2018-12-17T05:24:58.303Z,2.99
2018-12-17T05:27:25.704Z,2.89
2018-12-17T05:29:53.110Z,2.78
2018-12-17T05:32:20.502Z,2.75
2018-12-17T05:34:47.900Z,2.78
2018-12-17T05:37:15.333Z,2.85
2018-12-17T05:39:42.799Z,2.81
2018-12-17T05:42:10.202Z,2.77
2018-12-17T05:44:37.711Z,2.83
2018-12-17T05:47:05.175Z,2.74
2018-12-17T05:49:32.642Z,2.67
2018-12-17T05:52:00.187Z,2.53
2018-12-17T05:54:27.576Z,2.56
2018-12-17T05:56:54.994Z,2.68
2018-12-17T05:59:28.381Z,2.73
2018-12-17T06:01:51.839Z,2.68
2018-12-17T06:04:19.318Z,2.61
2018-12-17T06:06:46.724Z,2.70
2018-12-17T06:09:14.403Z,2.79
2018-12-17T06:11:41.823Z,2.76
2018-12-17T06:14:09.243Z,2.83
2018-12-17T06:16:36.699Z,2.86
2018-12-17T06:19:04.167Z,2.91
2018-12-17T06:21:31.566Z,2.88
2018-12-17T06:23:58.954Z,2.90
2018-12-17T06:26:26.423Z,3.00
2018-12-17T06:28:53.875Z,3.14
2018-12-17T06:31:21.339Z,3.13
2018-12-17T06:33:48.734Z,3.08
2018-12-17T06:36:16.122Z,3.21
2018-12-17T06:38:43.601Z,3.06
2018-12-17T06:41:11.064Z,3.21
2018-12-17T06:43:38.514Z,3.17
2018-12-17T06:46:05.915Z,3.24
2018-12-17T06:48:33.334Z,3.02
2018-12-17T06:51:00.783Z,3.01
2018-12-17T06:53:28.243Z,2.81
2018-12-17T06:55:55.643Z,2.87
2018-12-17T06:58:23.451Z,2.73
2018-12-17T07:00:50.918Z,2.90
2018-12-17T07:03:18.383Z,3.02
2018-12-17T07:05:45.770Z,3.04
2018-12-17T07:08:15.078Z,3.02
2018-12-17T07:10:42.481Z,2.95
2018-12-17T07:13:09.879Z,2.89
2018-12-17T07:15:37.270Z,2.97
2018-12-17T07:18:04.760Z,3.02
2018-12-17T07:20:32.154Z,2.98
2018-12-17T07:22:59.593Z,2.93
2018-12-17T07:25:27.022Z,2.90
2018-12-17T07:27:54.492Z,2.88
2018-12-17T07:30:22.038Z,2.97
2018-12-17T07:32:49.439Z,3.02
2018-12-17T07:35:16.849Z,3.02
2018-12-17T07:37:44.311Z,3.07
2018-12-17T07:40:11.701Z,3.10
2018-12-17T07:42:39.118Z,3.02
2018-12-17T07:45:06.789Z,3.01
2018-12-17T07:47:34.234Z,2.99
2018-12-17T07:50:01.633Z,3.13
2018-12-17T07:52:29.046Z,3.06
2018-12-17T07:54:56.505Z,3.12
2018-12-17T07:57:23.966Z,3.22
2018-12-17T07:59:56.702Z,3.01
2018-12-17T08:02:20.827Z,2.98
2018-12-17T08:04:48.216Z,2.82
2018-12-17T08:07:15.607Z,2.81
2018-12-17T08:09:43.091Z,2.77
2018-12-17T08:12:10.649Z,2.95
2018-12-17T08:14:38.202Z,3.03
2018-12-17T08:17:05.606Z,3.07
2018-12-17T08:19:33.013Z,3.08
2018-12-17T08:22:00.470Z,3.07
2018-12-17T08:24:28.642Z,3.13
2018-12-17T08:26:56.206Z,3.16
2018-12-17T08:29:23.599Z,3.24
2018-12-17T08:31:51.023Z,3.23
2018-12-17T08:34:18.483Z,3.15
2018-12-17T08:36:45.930Z,3.37
2018-12-17T08:39:13.386Z,3.41
2018-12-17T08:41:40.851Z,3.44
2018-12-17T08:44:08.255Z,3.45
2018-12-17T08:46:35.638Z,3.44
2018-12-17T08:49:03.026Z,3.34
2018-12-17T08:51:30.470Z,3.31
2018-12-17T08:53:57.933Z,3.44
2018-12-17T08:56:25.387Z,3.40
2018-12-17T08:58:52.778Z,3.33
2018-12-17T09:01:20.170Z,3.38
2018-12-17T09:03:47.575Z,3.38
2018-12-17T09:06:15.514Z,3.32
2018-12-17T09:08:42.922Z,3.29
2018-12-17T09:11:10.305Z,3.18
2018-12-17T09:13:37.786Z,3.17
2018-12-17T09:16:05.243Z,3.23
2018-12-17T09:18:32.702Z,3.20
2018-12-17T09:21:00.094Z,3.15
2018-12-17T09:23:27.613Z,3.09
2018-12-17T09:25:55.071Z,3.10
2018-12-17T09:28:22.522Z,3.22
2018-12-17T09:30:49.982Z,3.28
2018-12-17T09:33:17.439Z,3.18
2018-12-17T09:35:44.842Z,3.18
2018-12-17T09:38:12.229Z,3.11
2018-12-17T09:40:39.711Z,3.15
2018-12-17T09:43:07.215Z,3.12
2018-12-17T09:45:34.611Z,3.11
2018-12-17T09:48:02.084Z,3.16
2018-12-17T09:50:29.638Z,3.30
2018-12-17T09:52:57.096Z,3.43
2018-12-17T09:55:24.683Z,3.44
2018-12-17T09:57:52.111Z,3.40
2018-12-17T10:00:25.398Z,3.62
2018-12-17T10:02:48.951Z,3.47
2018-12-17T10:05:16.439Z,3.49
2018-12-17T10:07:43.971Z,3.53
2018-12-17T10:10:11.561Z,3.59
2018-12-17T10:12:39.106Z,3.57
2018-12-17T10:15:06.811Z,3.68
2018-12-17T10:17:34.198Z,3.68
2018-12-17T10:20:01.678Z,3.69
2018-12-17T10:22:29.134Z,3.67
2018-12-17T10:24:56.602Z,3.41
2018-12-17T10:27:24.070Z,3.47
2018-12-17T10:29:51.469Z,3.49
2018-12-17T10:32:18.963Z,3.50
2018-12-17T10:34:46.355Z,3.46
2018-12-17T10:37:13.774Z,3.40
2018-12-17T10:39:41.190Z,3.41
2018-12-17T10:42:08.584Z,3.57
2018-12-17T10:44:36.064Z,3.75
2018-12-17T10:47:03.546Z,3.79
2018-12-17T10:49:31.058Z,3.89
2018-12-17T10:51:58.525Z,3.84
2018-12-17T10:54:25.997Z,3.67
2018-12-17T10:56:53.436Z,3.86
2018-12-17T10:59:20.887Z,3.99
2018-12-17T11:01:53.738Z,3.82
2018-12-17T11:04:23.033Z,3.79
2018-12-17T11:06:50.462Z,3.95
2018-12-17T11:09:17.910Z,4.06
2018-12-17T11:11:45.438Z,4.07
2018-12-17T11:14:12.904Z,3.97
2018-12-17T11:16:40.453Z,3.98
2018-12-17T11:19:07.925Z,4.00
2018-12-17T11:21:35.370Z,3.90
2018-12-17T11:24:02.832Z,4.17
2018-12-17T11:26:30.310Z,4.27
2018-12-17T11:28:57.700Z,4.01
2018-12-17T11:31:25.206Z,4.14
2018-12-17T11:33:52.599Z,4.33
2018-12-17T11:36:20.010Z,4.28
2018-12-17T11:38:47.399Z,4.24
2018-12-17T11:41:14.807Z,4.33
2018-12-17T11:43:43.966Z,4.33
2018-12-17T11:46:11.655Z,4.47
2018-12-17T11:48:39.482Z,4.53
2018-12-17T11:51:06.938Z,4.49
2018-12-17T11:53:34.330Z,4.36
2018-12-17T11:56:01.721Z,4.33
2018-12-17T11:58:29.175Z,4.31
2018-12-17T12:00:57.674Z,4.39
2018-12-17T12:03:25.075Z,4.29
2018-12-17T12:05:52.535Z,4.26
2018-12-17T12:08:19.937Z,4.19
2018-12-17T12:10:47.329Z,4.24
2018-12-17T12:13:14.737Z,4.27
2018-12-17T12:15:42.287Z,4.46
2018-12-17T12:18:09.695Z,4.40
2018-12-17T12:20:37.082Z,4.42
2018-12-17T12:23:04.486Z,4.41
2018-12-17T12:25:31.964Z,4.44
2018-12-17T12:27:59.403Z,4.42
2018-12-17T12:30:26.843Z,4.43
2018-12-17T12:32:54.248Z,4.37
2018-12-17T12:35:21.646Z,4.41
2018-12-17T12:37:49.094Z,4.43
2018-12-17T12:40:16.483Z,4.34
2018-12-17T12:42:43.886Z,4.35
2018-12-17T12:45:11.372Z,4.48
2018-12-17T12:47:38.781Z,4.53
2018-12-17T12:50:08.098Z,4.50
2018-12-17T12:52:35.598Z,4.62
2018-12-17T12:55:03.115Z,4.64
2018-12-17T12:57:30.674Z,4.60
2018-12-17T12:59:58.071Z,4.74
2018-12-17T13:02:25.471Z,4.69
2018-12-17T13:04:52.983Z,4.67
2018-12-17T13:07:20.379Z,4.80
2018-12-17T13:09:47.786Z,4.85
2018-12-17T13:12:15.198Z,5.02
2018-12-17T13:14:42.597Z,5.17
2018-12-17T13:17:15.708Z,5.29
2018-12-17T13:19:43.167Z,5.18
2018-12-17T13:22:10.546Z,5.30
2018-12-17T13:24:37.945Z,5.41
2018-12-17T13:27:05.367Z,5.32
2018-12-17T13:29:32.766Z,5.48
2018-12-17T13:32:00.220Z,5.68
2018-12-17T13:34:27.636Z,5.64
2018-12-17T13:36:55.035Z,5.68
2018-12-17T13:39:22.451Z,5.67
2018-12-17T13:41:49.831Z,5.56
2018-12-17T13:44:17.294Z,5.55
2018-12-17T13:46:44.750Z,5.42
2018-12-17T13:49:12.160Z,5.47
2018-12-17T13:51:41.458Z,5.39
2018-12-17T13:54:08.930Z,5.40
2018-12-17T13:56:36.314Z,5.42
2018-12-17T13:59:03.779Z,5.53
2018-12-17T14:01:31.230Z,5.64
2018-12-17T14:03:58.790Z,5.70
2018-12-17T14:06:26.251Z,5.78
2018-12-17T14:08:53.810Z,5.81
2018-12-17T14:11:21.271Z,5.80
2018-12-17T14:13:48.657Z,5.79
2018-12-17T14:16:16.083Z,5.89
2018-12-17T14:18:49.080Z,5.77
2018-12-17T14:21:21.998Z,5.75
2018-12-17T14:23:49.403Z,5.89
2018-12-17T14:26:16.864Z,5.94
2018-12-17T14:28:44.314Z,5.79
2018-12-17T14:31:11.779Z,5.82
2018-12-17T14:33:39.173Z,5.66
2018-12-17T14:36:08.556Z,5.79
2018-12-17T14:38:36.357Z,5.95
2018-12-17T14:41:03.755Z,5.86
2018-12-17T14:43:31.142Z,6.02
2018-12-17T14:45:58.568Z,5.97
2018-12-17T14:48:25.953Z,6.05
2018-12-17T14:50:53.359Z,6.16
2018-12-17T14:53:20.838Z,6.18
2018-12-17T14:55:48.252Z,6.30
2018-12-17T14:58:15.646Z,6.29
2018-12-17T15:00:43.103Z,6.16
2018-12-17T15:03:10.563Z,6.25
2018-12-17T15:05:37.971Z,6.17
2018-12-17T15:08:05.486Z,6.05
2018-12-17T15:10:32.931Z,6.04
2018-12-17T15:13:00.394Z,5.92
2018-12-17T15:15:27.838Z,6.02
2018-12-17T15:17:55.299Z,5.95
2018-12-17T15:20:22.760Z,5.91
2018-12-17T15:22:50.151Z,5.74
2018-12-17T15:25:17.560Z,5.70
2018-12-17T15:27:45.126Z,5.66
2018-12-17T15:30:12.529Z,5.56
2018-12-17T15:32:39.910Z,5.76
2018-12-17T15:35:07.398Z,5.69
2018-12-17T15:37:34.850Z,5.76
2018-12-17T15:40:02.244Z,5.79
2018-12-17T15:42:29.675Z,5.71
2018-12-17T15:44:57.129Z,5.63
2018-12-17T15:47:24.588Z,5.44
2018-12-17T15:49:51.990Z,5.52
2018-12-17T15:52:19.396Z,5.46
2018-12-17T15:54:46.853Z,5.56
2018-12-17T15:57:14.257Z,5.66
2018-12-17T15:59:41.771Z,5.75
2018-12-17T16:02:09.434Z,5.78
2018-12-17T16:04:36.822Z,5.88
2018-12-17T16:07:04.247Z,6.03
2018-12-17T16:09:31.690Z,5.88
2018-12-17T16:11:59.085Z,5.77
2018-12-17T16:14:26.541Z,5.78
2018-12-17T16:16:53.959Z,5.58
2018-12-17T16:19:21.342Z,5.51
2018-12-17T16:21:48.770Z,5.72
2018-12-17T16:24:16.159Z,5.68
2018-12-17T16:26:43.631Z,5.61
2018-12-17T16:29:11.022Z,5.55
2018-12-17T16:31:38.414Z,5.40
2018-12-17T16:34:05.846Z,5.23
2018-12-17T16:36:33.353Z,5.14
2018-12-17T16:39:00.746Z,5.12
2018-12-17T16:41:28.218Z,5.02
2018-12-17T16:43:55.607Z,5.04
2018-12-17T16:46:23.030Z,5.27
2018-12-17T16:48:50.496Z,5.56
2018-12-17T16:51:17.945Z,5.58
2018-12-17T16:53:45.347Z,5.69
2018-12-17T16:56:12.751Z,5.86
2018-12-17T16:58:40.146Z,5.74
2018-12-17T17:01:07.538Z,5.66
2018-12-17T17:03:35.026Z,5.48
2018-12-17T17:06:02.426Z,5.43
2018-12-17T17:08:29.845Z,5.40
2018-12-17T17:10:57.298Z,5.47
2018-12-17T17:13:24.698Z,5.69
2018-12-17T17:15:52.102Z,5.83
2018-12-17T17:18:19.502Z,5.84
2018-12-17T17:20:46.934Z,5.70
2018-12-17T17:23:14.494Z,5.89
2018-12-17T17:25:41.886Z,5.93
2018-12-17T17:28:09.285Z,5.82
2018-12-17T17:30:36.679Z,5.96
2018-12-17T17:33:04.081Z,5.92
2018-12-17T17:35:31.557Z,5.85
2018-12-17T17:37:59.010Z,5.81
2018-12-17T17:40:26.586Z,5.96
2018-12-17T17:42:54.106Z,5.95
2018-12-17T17:45:21.595Z,6.01
2018-12-17T17:47:49.146Z,6.14
2018-12-17T17:50:16.606Z,6.00
2018-12-17T17:52:43.998Z,6.14
2018-12-17T17:55:11.385Z,6.20
2018-12-17T17:57:38.776Z,6.08
2018-12-17T18:00:08.779Z,6.16
2018-12-17T18:02:36.170Z,6.19
2018-12-17T18:05:04.323Z,6.19
2018-12-17T18:07:31.700Z,6.27
2018-12-17T18:09:59.138Z,6.24
2018-12-17T18:12:26.825Z,6.26
2018-12-17T18:14:54.247Z,6.23
2018-12-17T18:17:21.702Z,6.41
2018-12-17T18:19:49.170Z,6.33
2018-12-17T18:22:16.582Z,6.38
2018-12-17T18:24:43.976Z,6.39
2018-12-17T18:27:11.438Z,6.58
2018-12-17T18:29:38.909Z,6.54
2018-12-17T18:32:06.298Z,6.16
2018-12-17T18:34:33.697Z,6.11
2018-12-17T18:37:01.167Z,6.36
2018-12-17T18:39:28.570Z,6.38
2018-12-17T18:41:56.082Z,6.44
2018-12-17T18:44:23.533Z,6.60
2018-12-17T18:46:51.008Z,6.59
2018-12-17T18:49:18.541Z,6.56
2018-12-17T18:51:45.937Z,6.59
2018-12-17T18:54:13.329Z,6.70
2018-12-17T18:56:40.819Z,6.69
2018-12-17T18:59:08.199Z,6.76
2018-12-17T19:01:35.602Z,6.59
2018-12-17T19:04:03.013Z,6.65
2018-12-17T19:06:30.430Z,6.68
2018-12-17T19:08:57.886Z,6.81
2018-12-17T19:11:25.281Z,6.76
2018-12-17T19:13:52.698Z,6.82
2018-12-17T19:16:20.100Z,6.92
2018-12-17T19:18:47.491Z,6.97
2018-12-17T19:21:14.890Z,6.97
2018-12-17T19:23:42.335Z,7.00
2018-12-17T19:26:09.829Z,6.96
2018-12-17T19:28:37.294Z,7.11
2018-12-17T19:31:04.700Z,7.06
2018-12-17T19:33:32.082Z,7.09
2018-12-17T19:35:59.483Z,7.16
2018-12-17T19:38:26.961Z,7.31
2018-12-17T19:40:54.438Z,7.33
2018-12-17T19:43:21.832Z,7.32
2018-12-17T19:45:49.335Z,7.35
2018-12-17T19:48:16.797Z,7.38
2018-12-17T19:50:44.202Z,7.40
2018-12-17T19:53:11.579Z,7.36
2018-12-17T19:55:39.064Z,7.32
2018-12-17T19:58:06.455Z,7.43
2018-12-17T20:00:33.854Z,7.56
2018-12-17T20:03:01.452Z,7.57
2018-12-17T20:05:28.847Z,7.60
2018-12-17T20:07:56.262Z,7.58
2018-12-17T20:10:25.573Z,7.42
2018-12-17T20:12:52.974Z,7.49
2018-12-17T20:15:20.396Z,7.44
2018-12-17T20:17:47.805Z,7.32
2018-12-17T20:20:15.214Z,7.26
2018-12-17T20:22:42.690Z,7.39
2018-12-17T20:25:10.136Z,7.30
2018-12-17T20:27:37.527Z,7.29
2018-12-17T20:30:06.840Z,7.29
2018-12-17T20:32:34.574Z,7.32
2018-12-17T20:35:02.098Z,7.53
2018-12-17T20:37:29.514Z,7.67
2018-12-17T20:39:56.978Z,7.53
2018-12-17T20:42:24.479Z,7.53
2018-12-17T20:44:51.882Z,7.39
2018-12-17T20:47:19.346Z,7.52
2018-12-17T20:49:46.815Z,7.61
2018-12-17T20:52:14.334Z,7.51
2018-12-17T20:54:41.722Z,7.63
2018-12-17T20:57:09.121Z,7.69
2018-12-17T20:59:36.512Z,7.66
2018-12-17T21:02:04.008Z,7.66
2018-12-17T21:04:31.548Z,7.39
2018-12-17T21:06:58.966Z,7.31
2018-12-17T21:09:26.451Z,7.37
2018-12-17T21:11:53.938Z,7.53
2018-12-17T21:14:23.792Z,7.29
2018-12-17T21:16:50.974Z,7.32
2018-12-17T21:19:18.435Z,7.50
2018-12-17T21:21:45.827Z,7.45
2018-12-17T21:24:13.338Z,7.52
2018-12-17T21:26:40.738Z,7.57
2018-12-17T21:29:08.155Z,7.60
2018-12-17T21:31:35.590Z,7.64
2018-12-17T21:34:02.986Z,7.43
2018-12-17T21:36:30.435Z,7.45
2018-12-17T21:38:57.826Z,7.42
2018-12-17T21:41:25.224Z,7.32
2018-12-17T21:43:52.694Z,7.45
2018-12-17T21:46:20.252Z,7.44
2018-12-17T21:48:47.642Z,7.55
2018-12-17T21:51:15.038Z,7.49
2018-12-17T21:53:42.431Z,7.53
2018-12-17T21:56:09.896Z,7.59
2018-12-17T21:58:37.286Z,7.69
2018-12-17T22:01:04.702Z,7.73
2018-12-17T22:03:32.142Z,7.74
2018-12-17T22:05:59.602Z,7.80
2018-12-17T22:08:26.989Z,7.77
2018-12-17T22:10:54.509Z,7.92
2018-12-17T22:13:21.975Z,7.88
2018-12-17T22:15:49.366Z,7.79
2018-12-17T22:18:16.782Z,7.70
2018-12-17T22:20:44.198Z,7.82
2018-12-17T22:23:11.602Z,7.67
2018-12-17T22:25:38.982Z,7.61
2018-12-17T22:28:06.400Z,7.59
2018-12-17T22:30:33.798Z,7.73
2018-12-17T22:33:01.223Z,7.70
2018-12-17T22:35:28.614Z,7.53
2018-12-17T22:37:56.031Z,7.51
2018-12-17T22:40:23.452Z,7.58
2018-12-17T22:42:50.948Z,7.57
2018-12-17T22:45:18.326Z,7.48
2018-12-17T22:47:45.727Z,7.41
2018-12-17T22:50:13.211Z,7.31
2018-12-17T22:52:40.781Z,7.39
2018-12-17T22:55:08.354Z,7.29
2018-12-17T22:57:35.750Z,7.30
2018-12-17T23:00:04.838Z,7.43
2018-12-17T23:02:32.226Z,7.51
2018-12-17T23:05:00.615Z,7.59
2018-12-17T23:07:28.014Z,7.54
2018-12-17T23:10:07.509Z,7.62
2018-12-17T23:12:46.846Z,7.66
2018-12-17T23:15:26.073Z,7.71
2018-12-17T23:17:53.023Z,7.65
2018-12-17T23:20:20.623Z,7.54
2018-12-17T23:22:48.351Z,7.62
2018-12-17T23:25:15.802Z,7.68
2018-12-17T23:27:47.250Z,7.44
2018-12-17T23:30:14.951Z,7.48
2018-12-17T23:32:42.334Z,7.59
2018-12-17T23:35:09.834Z,7.58
2018-12-17T23:37:37.244Z,7.44
2018-12-17T23:40:05.237Z,7.59
2018-12-17T23:42:32.712Z,7.50
2018-12-17T23:45:00.119Z,7.44
2018-12-17T23:47:27.543Z,7.46
2018-12-17T23:49:54.938Z,7.47
2018-12-17T23:52:22.324Z,7.55
2018-12-17T23:54:49.800Z,7.61
2018-12-17T23:57:17.183Z,7.52
2018-12-17T23:59:44.598Z,7.48
